createdAt,value
2019-02-21T00:00:24.398Z,11.50
2019-02-21T00:01:17.975Z,11.10
2019-02-21T00:02:16.959Z,9.80
2019-02-21T00:03:16.948Z,11.50
2019-02-21T00:04:16.937Z,10.80
2019-02-21T00:05:16.927Z,13.20
2019-02-21T00:06:16.916Z,9.70
2019-02-21T00:07:16.907Z,12.70
2019-02-21T00:08:16.900Z,10.30
2019-02-21T00:09:16.884Z,11.10
2019-02-21T00:10:16.878Z,11.90
2019-02-21T00:11:16.939Z,9.70
2019-02-21T00:12:16.856Z,8.90
2019-02-21T00:13:16.841Z,12.90
2019-02-21T00:14:16.831Z,10.50
2019-02-21T00:15:16.820Z,12.70
2019-02-21T00:16:16.808Z,11.00
2019-02-21T00:17:16.800Z,11.00
2019-02-21T00:18:16.788Z,12.40
2019-02-21T00:19:16.786Z,12.20
2019-02-21T00:20:16.767Z,12.00
2019-02-21T00:21:16.756Z,10.20
2019-02-21T00:22:16.746Z,10.70
2019-02-21T00:23:16.734Z,11.60
2019-02-21T00:24:16.724Z,10.30
2019-02-21T00:25:16.715Z,10.40
2019-02-21T00:26:16.709Z,11.80
2019-02-21T00:27:16.691Z,12.00
2019-02-21T00:28:16.682Z,12.20
2019-02-21T00:29:16.670Z,14.60
2019-02-21T00:30:16.664Z,9.70
2019-02-21T00:31:16.650Z,11.50
2019-02-21T00:32:16.639Z,10.30
2019-02-21T00:33:16.628Z,12.10
2019-02-21T00:34:16.619Z,11.40
2019-02-21T00:35:16.607Z,10.50
2019-02-21T00:36:16.598Z,10.50
2019-02-21T00:37:16.585Z,9.90
2019-02-21T00:38:16.575Z,16.60
2019-02-21T00:39:16.565Z,11.60
2019-02-21T00:40:16.553Z,11.20
2019-02-21T00:41:16.543Z,12.00
2019-02-21T00:42:16.533Z,10.70
2019-02-21T00:43:16.524Z,12.90
2019-02-21T00:44:16.510Z,11.40
2019-02-21T00:45:16.505Z,11.30
2019-02-21T00:46:16.488Z,11.10
2019-02-21T00:47:16.479Z,12.10
2019-02-21T00:48:16.467Z,9.50
2019-02-21T00:49:16.458Z,11.20
2019-02-21T00:50:16.446Z,11.20
2019-02-21T00:51:16.436Z,14.60
2019-02-21T00:52:16.426Z,12.10
2019-02-21T00:53:16.414Z,13.70
2019-02-21T00:54:16.405Z,15.60
2019-02-21T00:55:16.393Z,10.00
2019-02-21T00:56:16.382Z,14.10
2019-02-21T00:57:16.372Z,10.30
2019-02-21T00:58:16.360Z,9.60
2019-02-21T00:59:16.350Z,11.30
2019-02-21T01:00:16.340Z,12.30
2019-02-21T01:01:16.330Z,10.80
2019-02-21T01:02:16.317Z,12.30
2019-02-21T01:03:16.306Z,11.90
2019-02-21T01:04:16.297Z,11.70
2019-02-21T01:05:16.286Z,13.90
2019-02-21T01:06:16.275Z,11.40
2019-02-21T01:07:16.268Z,15.70
2019-02-21T01:08:16.255Z,11.70
2019-02-21T01:09:16.244Z,10.00
2019-02-21T01:10:16.234Z,11.00
2019-02-21T01:11:16.226Z,11.70
2019-02-21T01:12:16.215Z,11.30
2019-02-21T01:13:16.202Z,13.80
2019-02-21T01:14:16.189Z,11.20
2019-02-21T01:15:16.178Z,11.10
2019-02-21T01:16:16.170Z,11.70
2019-02-21T01:17:16.163Z,10.60
2019-02-21T01:18:16.146Z,13.40
2019-02-21T01:19:16.140Z,11.80
2019-02-21T01:20:16.126Z,13.50
2019-02-21T01:21:16.115Z,11.00
2019-02-21T01:22:16.105Z,12.20
2019-02-21T01:23:16.094Z,10.90
2019-02-21T01:24:16.087Z,13.40
2019-02-21T01:25:16.072Z,12.70
2019-02-21T01:26:16.062Z,11.30
2019-02-21T01:27:16.052Z,11.80
2019-02-21T01:28:16.040Z,10.10
2019-02-21T01:29:16.031Z,11.20
2019-02-21T01:30:16.019Z,12.50
2019-02-21T01:31:16.009Z,10.00
2019-02-21T01:32:15.999Z,12.40
2019-02-21T01:33:15.987Z,13.20
2019-02-21T01:34:15.975Z,11.20
2019-02-21T01:35:15.964Z,11.70
2019-02-21T01:36:15.971Z,10.40
2019-02-21T01:37:15.944Z,13.60
2019-02-21T01:38:15.932Z,12.40
2019-02-21T01:39:15.922Z,10.90
2019-02-21T01:40:15.919Z,12.90
2019-02-21T01:41:15.901Z,10.50
2019-02-21T01:42:15.890Z,12.00
2019-02-21T01:43:15.881Z,11.20
2019-02-21T01:44:15.875Z,12.50
2019-02-21T01:45:15.861Z,10.80
2019-02-21T01:46:15.849Z,9.20
2019-02-21T01:47:15.837Z,13.10
2019-02-21T01:48:15.826Z,11.40
2019-02-21T01:49:15.818Z,11.70
2019-02-21T01:50:15.806Z,10.40
2019-02-21T01:51:15.798Z,13.40
2019-02-21T01:52:15.783Z,12.10
2019-02-21T01:53:15.774Z,12.20
2019-02-21T01:54:15.761Z,11.10
2019-02-21T01:55:15.772Z,14.60
2019-02-21T01:56:15.743Z,10.80
2019-02-21T01:57:15.731Z,11.90
2019-02-21T01:58:15.720Z,12.30
2019-02-21T01:59:15.708Z,12.50
2019-02-21T02:00:15.700Z,10.50
2019-02-21T02:01:15.688Z,15.70
2019-02-21T02:02:15.678Z,11.30
2019-02-21T02:03:15.666Z,12.40
2019-02-21T02:04:15.659Z,14.80
2019-02-21T02:05:15.646Z,13.20
2019-02-21T02:06:15.635Z,12.70
2019-02-21T02:07:15.623Z,12.80
2019-02-21T02:08:15.612Z,12.10
2019-02-21T02:09:15.640Z,11.30
2019-02-21T02:10:15.593Z,14.20
2019-02-21T02:11:15.583Z,12.70
2019-02-21T02:12:15.569Z,13.00
2019-02-21T02:13:24.211Z,11.50
2019-02-21T02:14:16.551Z,13.40
2019-02-21T02:15:15.542Z,11.20
2019-02-21T02:16:15.529Z,14.80
2019-02-21T02:17:15.519Z,12.30
2019-02-21T02:18:15.505Z,15.00
2019-02-21T02:19:15.497Z,13.20
2019-02-21T02:20:15.487Z,14.10
2019-02-21T02:21:15.477Z,15.20
2019-02-21T02:22:15.463Z,12.80
2019-02-21T02:23:15.456Z,13.60
2019-02-21T02:24:15.443Z,11.80
2019-02-21T02:25:15.431Z,13.50
2019-02-21T02:26:15.421Z,14.60
2019-02-21T02:27:15.412Z,14.60
2019-02-21T02:28:15.401Z,11.20
2019-02-21T02:29:15.390Z,11.60
2019-02-21T02:30:15.384Z,13.10
2019-02-21T02:31:22.757Z,14.80
2019-02-21T02:32:16.357Z,12.90
2019-02-21T02:33:15.347Z,13.30
2019-02-21T02:34:15.334Z,14.40
2019-02-21T02:35:15.326Z,13.00
2019-02-21T02:36:15.313Z,12.90
2019-02-21T02:37:15.304Z,13.20
2019-02-21T02:38:15.294Z,11.70
2019-02-21T02:39:15.285Z,13.30
2019-02-21T02:40:15.279Z,18.90
2019-02-21T02:41:15.267Z,12.30
2019-02-21T02:42:15.251Z,15.40
2019-02-21T02:43:15.263Z,16.90
2019-02-21T02:44:15.231Z,13.60
2019-02-21T02:45:15.219Z,14.00
2019-02-21T02:46:15.208Z,14.40
2019-02-21T02:47:15.203Z,14.40
2019-02-21T02:48:15.194Z,14.20
2019-02-21T02:49:15.177Z,15.60
2019-02-21T02:50:15.188Z,12.00
2019-02-21T02:51:15.156Z,14.80
2019-02-21T02:52:15.142Z,14.20
2019-02-21T02:53:15.140Z,13.70
2019-02-21T02:54:15.125Z,15.00
2019-02-21T02:55:15.111Z,14.40
2019-02-21T02:56:15.103Z,16.90
2019-02-21T02:57:15.093Z,17.40
2019-02-21T02:58:15.146Z,13.90
2019-02-21T02:59:15.069Z,13.70
2019-02-21T03:00:15.063Z,16.40
2019-02-21T03:01:15.051Z,14.90
2019-02-21T03:02:15.037Z,14.80
2019-02-21T03:03:15.027Z,17.30
2019-02-21T03:04:15.038Z,16.10
2019-02-21T03:05:15.005Z,17.60
2019-02-21T03:06:14.993Z,17.70
2019-02-21T03:07:14.984Z,17.80
2019-02-21T03:08:14.972Z,18.20
2019-02-21T03:09:14.961Z,19.20
2019-02-21T03:10:14.951Z,18.60
2019-02-21T03:11:14.944Z,14.90
2019-02-21T03:12:14.932Z,14.10
2019-02-21T03:13:14.919Z,20.20
2019-02-21T03:14:14.909Z,18.10
2019-02-21T03:15:14.896Z,17.10
2019-02-21T03:16:14.894Z,20.10
2019-02-21T03:17:14.875Z,17.50
2019-02-21T03:18:14.868Z,17.90
2019-02-21T03:19:14.857Z,16.90
2019-02-21T03:20:14.853Z,18.40
2019-02-21T03:21:14.837Z,18.30
2019-02-21T03:22:14.826Z,16.80
2019-02-21T03:23:14.811Z,16.30
2019-02-21T03:24:14.808Z,17.30
2019-02-21T03:25:14.796Z,19.60
2019-02-21T03:26:14.781Z,15.80
2019-02-21T03:27:14.773Z,17.00
2019-02-21T03:28:14.761Z,17.20
2019-02-21T03:29:14.753Z,19.00
2019-02-21T03:30:14.740Z,15.30
2019-02-21T03:31:14.732Z,17.30
2019-02-21T03:32:14.716Z,17.10
2019-02-21T03:33:14.707Z,18.60
2019-02-21T03:34:14.836Z,17.10
2019-02-21T03:35:14.686Z,21.30
2019-02-21T03:36:14.684Z,17.30
2019-02-21T03:37:14.678Z,16.70
2019-02-21T03:38:14.662Z,18.20
2019-02-21T03:39:14.647Z,19.90
2019-02-21T03:40:14.629Z,18.70
2019-02-21T03:41:14.619Z,21.20
2019-02-21T03:42:14.608Z,18.50
2019-02-21T03:43:14.598Z,18.20
2019-02-21T03:44:14.587Z,21.60
2019-02-21T03:45:14.581Z,17.90
2019-02-21T03:46:14.574Z,18.50
2019-02-21T03:47:14.553Z,18.90
2019-02-21T03:48:14.545Z,21.00
2019-02-21T03:49:14.537Z,16.60
2019-02-21T03:50:14.522Z,16.90
2019-02-21T03:51:14.517Z,20.20
2019-02-21T03:52:14.545Z,19.20
2019-02-21T03:53:14.495Z,19.70
2019-02-21T03:54:14.481Z,21.40
2019-02-21T03:55:14.471Z,19.80
2019-02-21T03:56:14.459Z,21.50
2019-02-21T03:57:14.455Z,19.20
2019-02-21T03:58:14.439Z,18.50
2019-02-21T03:59:14.430Z,18.40
2019-02-21T04:00:14.417Z,19.80
2019-02-21T04:01:14.410Z,23.20
2019-02-21T04:02:14.395Z,19.10
2019-02-21T04:03:14.383Z,19.60
2019-02-21T04:04:14.373Z,20.00
2019-02-21T04:05:14.364Z,19.90
2019-02-21T04:06:14.351Z,22.00
2019-02-21T04:07:14.356Z,16.90
2019-02-21T04:08:14.335Z,19.50
2019-02-21T04:09:14.321Z,18.40
2019-02-21T04:10:14.312Z,20.30
2019-02-21T04:11:14.302Z,20.20
2019-02-21T04:12:14.293Z,20.90
2019-02-21T04:13:15.297Z,20.00
2019-02-21T04:14:14.266Z,18.00
2019-02-21T04:15:14.271Z,21.90
2019-02-21T04:16:14.245Z,22.30
2019-02-21T04:17:14.234Z,24.60
2019-02-21T04:18:14.224Z,20.80
2019-02-21T04:19:14.218Z,22.60
2019-02-21T04:20:14.203Z,23.70
2019-02-21T04:21:14.197Z,20.70
2019-02-21T04:22:14.182Z,22.70
2019-02-21T04:23:14.176Z,22.00
2019-02-21T04:24:14.159Z,19.30
2019-02-21T04:25:14.149Z,21.70
2019-02-21T04:26:14.140Z,19.40
2019-02-21T04:27:14.125Z,19.50
2019-02-21T04:28:14.118Z,26.10
2019-02-21T04:29:14.104Z,24.20
2019-02-21T04:30:14.097Z,21.80
2019-02-21T04:31:14.086Z,22.50
2019-02-21T04:32:16.884Z,21.20
2019-02-21T04:33:14.064Z,21.30
2019-02-21T04:34:14.054Z,23.00
2019-02-21T04:35:14.044Z,24.30
2019-02-21T04:36:14.030Z,25.00
2019-02-21T04:37:14.022Z,21.30
2019-02-21T04:38:14.016Z,20.80
2019-02-21T04:39:14.002Z,23.80
2019-02-21T04:40:13.990Z,25.10
2019-02-21T04:41:13.979Z,26.40
2019-02-21T04:42:13.969Z,26.10
2019-02-21T04:43:13.958Z,22.90
2019-02-21T04:44:13.946Z,24.50
2019-02-21T04:45:13.937Z,24.80
2019-02-21T04:46:13.927Z,22.40
2019-02-21T04:47:13.916Z,23.30
2019-02-21T04:48:13.907Z,22.90
2019-02-21T04:49:13.896Z,25.30
2019-02-21T04:50:13.885Z,23.40
2019-02-21T04:51:13.873Z,26.40
2019-02-21T04:52:13.860Z,25.70
2019-02-21T04:53:13.860Z,24.70
2019-02-21T04:54:13.844Z,24.70
2019-02-21T04:55:13.834Z,25.10
2019-02-21T04:56:13.819Z,23.40
2019-02-21T04:57:13.806Z,22.70
2019-02-21T04:58:13.795Z,23.20
2019-02-21T04:59:13.788Z,22.50
2019-02-21T05:00:13.778Z,23.00
2019-02-21T05:01:13.765Z,30.10
2019-02-21T05:02:13.754Z,25.40
2019-02-21T05:03:13.746Z,26.20
2019-02-21T05:04:13.734Z,28.30
2019-02-21T05:05:13.722Z,28.90
2019-02-21T05:06:13.724Z,25.70
2019-02-21T05:07:13.754Z,25.70
2019-02-21T05:08:13.690Z,27.40
2019-02-21T05:09:13.680Z,25.20
2019-02-21T05:10:13.670Z,24.90
2019-02-21T05:11:13.656Z,28.70
2019-02-21T05:12:13.651Z,26.00
2019-02-21T05:13:13.636Z,27.50
2019-02-21T05:14:13.633Z,24.40
2019-02-21T05:15:14.193Z,25.90
2019-02-21T05:16:13.604Z,31.90
2019-02-21T05:17:13.593Z,26.00
2019-02-21T05:18:13.585Z,26.90
2019-02-21T05:19:13.573Z,27.60
2019-02-21T05:20:13.564Z,25.90
2019-02-21T05:21:13.550Z,27.10
2019-02-21T05:22:13.545Z,24.70
2019-02-21T05:23:13.532Z,30.30
2019-02-21T05:24:13.519Z,27.80
2019-02-21T05:25:13.509Z,28.70
2019-02-21T05:26:13.497Z,30.00
2019-02-21T05:27:13.486Z,28.10
2019-02-21T05:28:13.476Z,26.80
2019-02-21T05:29:13.465Z,29.80
2019-02-21T05:30:13.485Z,28.50
2019-02-21T05:31:13.444Z,29.70
2019-02-21T05:32:13.435Z,26.90
2019-02-21T05:33:13.421Z,30.00
2019-02-21T05:34:13.410Z,30.10
2019-02-21T05:35:13.401Z,26.50
2019-02-21T05:36:13.390Z,27.10
2019-02-21T05:37:13.380Z,32.50
2019-02-21T05:38:13.390Z,30.30
2019-02-21T05:39:13.373Z,30.70
2019-02-21T05:40:13.345Z,34.20
2019-02-21T05:41:13.339Z,34.00
2019-02-21T05:42:13.326Z,32.80
2019-02-21T05:43:13.322Z,34.10
2019-02-21T05:44:13.305Z,31.10
2019-02-21T05:45:13.297Z,34.50
2019-02-21T05:46:13.283Z,36.50
2019-02-21T05:47:13.273Z,32.60
2019-02-21T05:48:13.262Z,35.20
2019-02-21T05:49:13.250Z,34.90
2019-02-21T05:50:13.242Z,37.30
2019-02-21T05:51:13.233Z,35.90
2019-02-21T05:52:13.224Z,35.70
2019-02-21T05:53:13.213Z,31.60
2019-02-21T05:54:13.199Z,33.50
2019-02-21T05:55:13.188Z,34.90
2019-02-21T05:56:13.179Z,37.80
2019-02-21T05:57:13.167Z,35.90
2019-02-21T05:58:13.157Z,34.00
2019-02-21T05:59:13.147Z,38.30
2019-02-21T06:00:13.139Z,40.10
2019-02-21T06:01:13.122Z,36.00
2019-02-21T06:02:13.112Z,39.20
2019-02-21T06:03:13.101Z,40.40
2019-02-21T06:04:13.094Z,40.10
2019-02-21T06:05:13.084Z,39.90
2019-02-21T06:06:13.126Z,37.30
2019-02-21T06:07:13.064Z,37.70
2019-02-21T06:08:13.047Z,38.50
2019-02-21T06:09:13.050Z,37.60
2019-02-21T06:10:13.029Z,42.10
2019-02-21T06:11:13.015Z,38.50
2019-02-21T06:12:13.005Z,36.50
2019-02-21T06:13:12.996Z,38.50
2019-02-21T06:14:13.080Z,38.50
2019-02-21T06:15:12.975Z,38.00
2019-02-21T06:16:12.999Z,41.90
2019-02-21T06:17:12.952Z,40.60
2019-02-21T06:18:12.941Z,37.80
2019-02-21T06:19:12.931Z,38.30
2019-02-21T06:20:12.922Z,42.40
2019-02-21T06:21:12.912Z,41.50
2019-02-21T06:22:12.899Z,38.10
2019-02-21T06:23:12.889Z,37.00
2019-02-21T06:24:12.880Z,38.40
2019-02-21T06:25:12.866Z,39.20
2019-02-21T06:26:12.945Z,37.50
2019-02-21T06:27:12.844Z,39.30
2019-02-21T06:28:12.835Z,37.90
2019-02-21T06:29:12.825Z,38.90
2019-02-21T06:30:12.814Z,39.20
2019-02-21T06:31:12.804Z,35.40
2019-02-21T06:32:14.529Z,38.70
2019-02-21T06:33:12.783Z,35.20
2019-02-21T06:34:12.771Z,38.70
2019-02-21T06:35:12.764Z,36.50
2019-02-21T06:36:12.754Z,36.70
2019-02-21T06:37:12.933Z,35.80
2019-02-21T06:38:12.734Z,40.80
2019-02-21T06:39:12.718Z,40.70
2019-02-21T06:40:12.705Z,36.60
2019-02-21T06:41:12.696Z,38.70
2019-02-21T06:42:12.684Z,34.90
2019-02-21T06:43:12.675Z,34.70
2019-02-21T06:44:12.667Z,44.00
2019-02-21T06:45:12.654Z,39.90
2019-02-21T06:46:13.695Z,36.20
2019-02-21T06:47:12.677Z,39.20
2019-02-21T06:48:12.708Z,37.10
2019-02-21T06:49:12.612Z,39.20
2019-02-21T06:50:14.428Z,42.50
2019-02-21T06:51:12.589Z,37.80
2019-02-21T06:52:12.580Z,35.00
2019-02-21T06:53:12.570Z,36.20
2019-02-21T06:54:12.557Z,37.80
2019-02-21T06:55:12.545Z,36.00
2019-02-21T06:56:12.536Z,34.90
2019-02-21T06:57:12.525Z,39.60
2019-02-21T06:58:12.515Z,35.40
2019-02-21T06:59:12.505Z,35.30
2019-02-21T07:00:12.496Z,34.30
2019-02-21T07:01:12.483Z,41.70
2019-02-21T07:02:13.635Z,38.00
2019-02-21T07:03:15.850Z,37.30
2019-02-21T07:04:12.450Z,39.90
2019-02-21T07:05:12.438Z,36.30
2019-02-21T07:06:12.462Z,34.70
2019-02-21T07:07:12.418Z,37.30
2019-02-21T07:08:12.410Z,40.30
2019-02-21T07:09:12.398Z,35.00
2019-02-21T07:10:12.386Z,36.30
2019-02-21T07:11:12.377Z,41.20
2019-02-21T07:12:12.394Z,40.40
2019-02-21T07:13:12.355Z,38.00
2019-02-21T07:14:12.344Z,33.20
2019-02-21T07:15:14.929Z,34.00
2019-02-21T07:16:13.245Z,37.50
2019-02-21T07:17:12.317Z,36.90
2019-02-21T07:18:12.302Z,39.50
2019-02-21T07:19:12.291Z,35.80
2019-02-21T07:20:12.986Z,34.90
2019-02-21T07:21:13.327Z,34.20
2019-02-21T07:22:17.854Z,36.80
2019-02-21T07:23:13.247Z,32.90
2019-02-21T07:24:12.238Z,35.50
2019-02-21T07:25:12.226Z,34.30
2019-02-21T07:26:12.218Z,34.90
2019-02-21T07:27:12.204Z,32.70
2019-02-21T07:28:15.591Z,35.20
2019-02-21T07:29:12.183Z,36.90
2019-02-21T07:30:19.593Z,35.10
2019-02-21T07:31:13.166Z,33.90
2019-02-21T07:32:12.151Z,33.50
2019-02-21T07:33:12.140Z,35.80
2019-02-21T07:34:12.130Z,36.40
2019-02-21T07:35:12.126Z,34.40
2019-02-21T07:36:12.109Z,36.50
2019-02-21T07:37:18.744Z,34.40
2019-02-21T07:38:13.087Z,32.60
2019-02-21T07:39:17.453Z,36.40
2019-02-21T07:40:19.790Z,33.50
2019-02-21T07:41:13.223Z,34.40
2019-02-21T07:42:12.044Z,37.90
2019-02-21T07:43:12.892Z,33.80
2019-02-21T07:44:12.637Z,32.50
2019-02-21T07:45:12.143Z,31.90
2019-02-21T07:46:12.000Z,31.90
2019-02-21T07:47:11.989Z,31.80
2019-02-21T07:48:12.059Z,35.20
2019-02-21T07:49:11.969Z,33.90
2019-02-21T07:50:11.959Z,35.90
2019-02-21T07:51:13.477Z,31.70
2019-02-21T07:52:11.935Z,34.50
2019-02-21T07:53:12.435Z,31.80
2019-02-21T07:54:11.918Z,34.30
2019-02-21T07:55:11.908Z,32.60
2019-02-21T07:56:11.895Z,32.50
2019-02-21T07:57:11.884Z,35.20
2019-02-21T07:58:11.876Z,31.10
2019-02-21T07:59:12.251Z,34.60
2019-02-21T08:00:11.862Z,34.90
2019-02-21T08:01:11.842Z,32.60
2019-02-21T08:02:11.831Z,29.30
2019-02-21T08:03:11.821Z,30.50
2019-02-21T08:04:11.809Z,31.80
2019-02-21T08:05:11.800Z,32.40
2019-02-21T08:06:11.788Z,34.00
2019-02-21T08:07:11.783Z,32.30
2019-02-21T08:08:11.764Z,30.90
2019-02-21T08:09:11.759Z,30.80
2019-02-21T08:10:11.747Z,30.00
2019-02-21T08:11:11.733Z,29.60
2019-02-21T08:12:11.726Z,33.10
2019-02-21T08:13:11.712Z,31.90
2019-02-21T08:14:11.701Z,30.70
2019-02-21T08:15:11.953Z,30.30
2019-02-21T08:16:12.505Z,30.00
2019-02-21T08:17:11.688Z,27.50
2019-02-21T08:18:11.657Z,28.60
2019-02-21T08:19:11.648Z,32.50
2019-02-21T08:20:11.637Z,31.10
2019-02-21T08:21:11.626Z,31.70
2019-02-21T08:22:11.615Z,33.50
2019-02-21T08:23:11.603Z,34.00
2019-02-21T08:24:11.593Z,31.20
2019-02-21T08:25:11.583Z,34.80
2019-02-21T08:26:11.576Z,35.00
2019-02-21T08:27:11.567Z,31.90
2019-02-21T08:28:11.554Z,28.80
2019-02-21T08:29:11.539Z,32.90
2019-02-21T08:30:11.528Z,33.70
2019-02-21T08:31:11.520Z,31.60
2019-02-21T08:32:11.507Z,29.60
2019-02-21T08:33:11.500Z,30.80
2019-02-21T08:34:11.485Z,36.70
2019-02-21T08:35:11.479Z,35.00
2019-02-21T08:36:11.469Z,34.40
2019-02-21T08:37:11.455Z,28.70
2019-02-21T08:38:12.218Z,33.50
2019-02-21T08:39:11.432Z,30.50
2019-02-21T08:40:11.421Z,31.00
2019-02-21T08:41:11.411Z,32.30
2019-02-21T08:42:11.399Z,33.30
2019-02-21T08:43:11.392Z,32.60
2019-02-21T08:44:11.383Z,35.50
2019-02-21T08:45:11.369Z,34.60
2019-02-21T08:46:11.360Z,37.70
2019-02-21T08:47:11.348Z,35.60
2019-02-21T08:48:13.403Z,35.00
2019-02-21T08:49:11.326Z,36.70
2019-02-21T08:50:11.316Z,38.10
2019-02-21T08:51:11.304Z,35.60
2019-02-21T08:52:11.294Z,37.60
2019-02-21T08:53:13.035Z,35.10
2019-02-21T08:54:11.551Z,40.00
2019-02-21T08:55:11.266Z,38.80
2019-02-21T08:56:11.251Z,37.00
2019-02-21T08:57:11.242Z,37.00
2019-02-21T08:58:11.234Z,37.70
2019-02-21T08:59:11.218Z,37.30
2019-02-21T09:00:11.214Z,35.20
2019-02-21T09:01:11.200Z,38.70
2019-02-21T09:02:11.189Z,35.70
2019-02-21T09:03:11.180Z,40.50
2019-02-21T09:04:26.388Z,35.30
2019-02-21T09:05:12.158Z,36.40
2019-02-21T09:06:11.146Z,40.10
2019-02-21T09:07:11.134Z,37.50
2019-02-21T09:08:11.124Z,35.40
2019-02-21T09:09:11.114Z,37.40
2019-02-21T09:10:11.104Z,35.70
2019-02-21T09:11:11.091Z,38.00
2019-02-21T09:12:11.086Z,35.50
2019-02-21T09:13:11.069Z,38.50
2019-02-21T09:14:11.061Z,35.70
2019-02-21T09:15:11.048Z,39.90
2019-02-21T09:16:11.040Z,36.00
2019-02-21T09:17:11.027Z,36.40
2019-02-21T09:18:11.023Z,38.00
2019-02-21T09:19:11.007Z,37.00
2019-02-21T09:20:10.996Z,36.00
2019-02-21T09:21:10.988Z,35.20
2019-02-21T09:22:10.974Z,37.80
2019-02-21T09:23:10.964Z,32.60
2019-02-21T09:24:13.639Z,38.20
2019-02-21T09:25:10.943Z,36.30
2019-02-21T09:26:10.934Z,36.10
2019-02-21T09:27:10.920Z,33.80
2019-02-21T09:28:10.912Z,38.20
2019-02-21T09:29:10.901Z,36.30
2019-02-21T09:30:10.892Z,35.70
2019-02-21T09:31:10.880Z,34.40
2019-02-21T09:32:10.868Z,35.50
2019-02-21T09:33:17.445Z,34.60
2019-02-21T09:34:20.801Z,34.30
2019-02-21T09:35:11.838Z,34.10
2019-02-21T09:36:10.826Z,31.40
2019-02-21T09:37:10.814Z,37.60
2019-02-21T09:38:10.804Z,35.90
2019-02-21T09:39:10.794Z,40.60
2019-02-21T09:40:10.974Z,37.40
2019-02-21T09:41:10.773Z,34.90
2019-02-21T09:42:10.761Z,35.20
2019-02-21T09:43:10.751Z,33.00
2019-02-21T09:44:10.739Z,34.40
2019-02-21T09:45:10.732Z,33.70
2019-02-21T09:46:10.717Z,32.60
2019-02-21T09:47:10.708Z,35.20
2019-02-21T09:48:12.071Z,33.20
2019-02-21T09:49:10.687Z,36.80
2019-02-21T09:50:10.675Z,29.20
2019-02-21T09:51:10.665Z,32.80
2019-02-21T09:52:10.654Z,32.50
2019-02-21T09:53:10.646Z,33.30
2019-02-21T09:54:10.637Z,34.80
2019-02-21T09:55:10.625Z,34.40
2019-02-21T09:56:10.614Z,34.90
2019-02-21T09:57:13.529Z,33.50
2019-02-21T09:58:10.592Z,34.10
2019-02-21T09:59:10.579Z,31.70
2019-02-21T10:00:10.574Z,31.10
2019-02-21T10:01:10.560Z,34.00
2019-02-21T10:02:10.549Z,33.10
2019-02-21T10:03:10.537Z,29.60
2019-02-21T10:04:10.525Z,31.50
2019-02-21T10:05:10.517Z,30.60
2019-02-21T10:06:10.504Z,33.30
2019-02-21T10:07:10.492Z,30.50
2019-02-21T10:08:10.481Z,30.60
2019-02-21T10:09:10.474Z,31.60
2019-02-21T10:10:10.462Z,30.30
2019-02-21T10:11:11.470Z,29.60
2019-02-21T10:12:10.440Z,30.00
2019-02-21T10:13:13.156Z,30.40
2019-02-21T10:14:10.422Z,29.40
2019-02-21T10:15:10.405Z,32.90
2019-02-21T10:16:10.394Z,30.00
2019-02-21T10:17:10.385Z,32.50
2019-02-21T10:18:10.373Z,29.90
2019-02-21T10:19:10.364Z,31.10
2019-02-21T10:20:10.356Z,31.40
2019-02-21T10:21:10.339Z,32.30
2019-02-21T10:22:10.329Z,33.40
2019-02-21T10:23:10.319Z,33.50
2019-02-21T10:24:10.308Z,27.20
2019-02-21T10:25:10.298Z,30.00
2019-02-21T10:26:10.287Z,28.50
2019-02-21T10:27:10.276Z,28.10
2019-02-21T10:28:10.266Z,26.20
2019-02-21T10:29:10.255Z,28.00
2019-02-21T10:30:10.245Z,26.80
2019-02-21T10:31:10.234Z,27.50
2019-02-21T10:32:10.225Z,28.10
2019-02-21T10:33:10.213Z,28.30
2019-02-21T10:34:10.200Z,25.50
2019-02-21T10:35:10.192Z,23.50
2019-02-21T10:36:10.182Z,26.00
2019-02-21T10:37:10.170Z,25.70
2019-02-21T10:38:10.157Z,26.80
2019-02-21T10:39:10.214Z,25.00
2019-02-21T10:40:10.137Z,26.90
2019-02-21T10:41:10.126Z,27.50
2019-02-21T10:42:10.116Z,25.50
2019-02-21T10:43:10.109Z,25.20
2019-02-21T10:44:10.094Z,24.70
2019-02-21T10:45:10.083Z,23.70
2019-02-21T10:46:10.072Z,24.60
2019-02-21T10:47:10.062Z,21.00
2019-02-21T10:48:10.051Z,21.40
2019-02-21T10:49:10.040Z,24.40
2019-02-21T10:50:10.030Z,23.80
2019-02-21T10:51:10.021Z,25.30
2019-02-21T10:52:10.004Z,24.30
2019-02-21T10:53:09.995Z,24.70
2019-02-21T10:54:09.984Z,24.60
2019-02-21T10:55:09.974Z,25.80
2019-02-21T10:56:09.966Z,24.60
2019-02-21T10:57:09.952Z,23.90
2019-02-21T10:58:09.941Z,22.70
2019-02-21T10:59:09.933Z,22.20
2019-02-21T11:00:10.013Z,24.00
2019-02-21T11:01:09.907Z,22.90
2019-02-21T11:02:09.898Z,23.40
2019-02-21T11:03:09.888Z,21.20
2019-02-21T11:04:09.879Z,22.30
2019-02-21T11:05:09.868Z,23.60
2019-02-21T11:06:09.852Z,23.20
2019-02-21T11:07:09.842Z,24.50
2019-02-21T11:08:09.835Z,23.50
2019-02-21T11:09:09.824Z,22.70
2019-02-21T11:10:09.810Z,22.90
2019-02-21T11:11:09.803Z,22.00
2019-02-21T11:12:09.790Z,20.90
2019-02-21T11:13:09.779Z,21.20
2019-02-21T11:14:09.766Z,20.10
2019-02-21T11:15:09.756Z,22.00
2019-02-21T11:16:09.748Z,19.70
2019-02-21T11:17:09.733Z,22.60
2019-02-21T11:18:09.724Z,25.00
2019-02-21T11:19:09.712Z,23.50
2019-02-21T11:20:09.705Z,21.00
2019-02-21T11:21:09.694Z,21.20
2019-02-21T11:22:09.682Z,20.40
2019-02-21T11:23:09.670Z,19.20
2019-02-21T11:24:09.661Z,21.50
2019-02-21T11:25:09.648Z,19.10
2019-02-21T11:26:09.642Z,22.30
2019-02-21T11:27:09.629Z,19.40
2019-02-21T11:28:09.618Z,20.50
2019-02-21T11:29:09.607Z,19.50
2019-02-21T11:30:09.597Z,21.30
2019-02-21T11:31:09.587Z,20.10
2019-02-21T11:32:09.575Z,21.00
2019-02-21T11:33:09.565Z,20.10
2019-02-21T11:34:09.553Z,19.50
2019-02-21T11:35:09.543Z,17.20
2019-02-21T11:36:09.530Z,17.50
2019-02-21T11:37:09.523Z,17.10
2019-02-21T11:38:09.512Z,19.70
2019-02-21T11:39:09.497Z,19.70
2019-02-21T11:40:09.494Z,19.80
2019-02-21T11:41:09.480Z,17.50
2019-02-21T11:42:09.473Z,17.90
2019-02-21T11:43:09.458Z,17.10
2019-02-21T11:44:09.445Z,16.90
2019-02-21T11:45:09.440Z,17.60
2019-02-21T11:46:09.548Z,16.30
2019-02-21T11:47:09.414Z,16.40
2019-02-21T11:48:09.465Z,16.70
2019-02-21T11:49:09.395Z,17.40
2019-02-21T11:50:09.380Z,16.50
2019-02-21T11:51:09.372Z,17.90
2019-02-21T11:52:10.338Z,18.00
2019-02-21T11:53:09.350Z,16.80
2019-02-21T11:54:09.338Z,17.90
2019-02-21T11:55:09.326Z,17.00
2019-02-21T11:56:09.317Z,16.90
2019-02-21T11:57:09.309Z,16.70
2019-02-21T11:58:09.295Z,19.00
2019-02-21T11:59:09.287Z,17.10
2019-02-21T12:00:09.274Z,16.80
2019-02-21T12:01:09.261Z,18.20
2019-02-21T12:02:09.251Z,16.60
2019-02-21T12:03:09.238Z,18.70
2019-02-21T12:04:09.234Z,16.30
2019-02-21T12:05:17.142Z,16.40
2019-02-21T12:06:10.205Z,17.10
2019-02-21T12:07:09.195Z,16.90
2019-02-21T12:08:09.186Z,15.60
2019-02-21T12:09:09.175Z,17.50
2019-02-21T12:10:09.164Z,15.30
2019-02-21T12:11:09.153Z,15.40
2019-02-21T12:12:10.440Z,15.10
2019-02-21T12:13:09.131Z,16.70
2019-02-21T12:14:09.120Z,15.90
2019-02-21T12:15:09.124Z,16.30
2019-02-21T12:16:09.100Z,14.70
2019-02-21T12:17:09.087Z,17.50
2019-02-21T12:18:09.077Z,16.60
2019-02-21T12:19:09.065Z,16.90
2019-02-21T12:20:09.054Z,16.30
2019-02-21T12:21:09.045Z,18.20
2019-02-21T12:22:09.036Z,17.50
2019-02-21T12:23:09.024Z,17.90
2019-02-21T12:24:09.014Z,17.10
2019-02-21T12:25:09.002Z,16.60
2019-02-21T12:26:08.990Z,18.50
2019-02-21T12:27:08.979Z,18.00
2019-02-21T12:28:08.969Z,17.10
2019-02-21T12:29:08.961Z,17.30
2019-02-21T12:30:08.950Z,16.00
2019-02-21T12:31:08.949Z,18.40
2019-02-21T12:32:08.928Z,15.10
2019-02-21T12:33:08.918Z,17.50
2019-02-21T12:34:08.905Z,17.20
2019-02-21T12:35:08.896Z,16.30
2019-02-21T12:36:08.883Z,15.40
2019-02-21T12:37:08.873Z,16.70
2019-02-21T12:38:08.861Z,16.50
2019-02-21T12:39:08.853Z,16.00
2019-02-21T12:40:08.841Z,16.90
2019-02-21T12:41:08.846Z,17.10
2019-02-21T12:42:08.821Z,17.00
2019-02-21T12:43:08.808Z,17.50
2019-02-21T12:44:08.800Z,15.70
2019-02-21T12:45:08.788Z,16.10
2019-02-21T12:46:08.777Z,17.70
2019-02-21T12:47:08.766Z,17.60
2019-02-21T12:48:08.756Z,16.10
2019-02-21T12:49:10.701Z,15.20
2019-02-21T12:50:08.734Z,16.80
2019-02-21T12:51:08.724Z,14.90
2019-02-21T12:52:08.754Z,16.40